Time;durP1;ratioP1;P1;durP2;ratioP2;P2;SDS_P1;SDS_P2;PMS_P1;PMS_P2;Temp;Humidity;BMP_temperature;BMP_pressure;BME280_temperature;BME280_humidity;BME280_pressure;Samples;Min_cycle;Max_cycle;Signal;HPM_P1;HPM_P2
2023/04/10 00:00:31;;;;;;;17.50;12.25;;;11.90;90.80;;;;;;5051251;28;20512;-72
2023/04/10 00:03:35;;;;;;;19.65;11.65;;;11.80;91.20;;;;;;5050939;28;20064;-72
2023/04/10 00:06:40;;;;;;;19.95;11.82;;;;;;;;;;5051193;28;20111;-72
2023/04/10 00:09:44;;;;;;;18.33;11.98;;;11.70;90.90;;;;;;5051018;28;20567;-72
2023/04/10 00:12:50;;;;;;;16.83;12.00;;;11.50;91.00;;;;;;5050835;28;20044;-72
2023/04/10 00:15:54;;;;;;;16.83;12.68;;;;;;;;;;5050133;28;20413;-72
2023/04/10 00:18:57;;;;;;;19.20;12.43;;;11.30;90.80;;;;;;5050669;28;20040;-72
2023/04/10 00:22:02;;;;;;;18.48;11.82;;;11.60;91.10;;;;;;5050606;28;20071;-72
2023/04/10 00:25:06;;;;;;;21.90;12.15;;;;;;;;;;5050602;28;20048;-72
2023/04/10 00:28:09;;;;;;;23.00;14.05;;;11.70;91.20;;;;;;5050556;28;20071;-72
2023/04/10 00:31:13;;;;;;;19.25;12.88;;;11.80;91.40;;;;;;5050593;28;20072;-72
2023/04/10 00:34:17;;;;;;;18.55;12.85;;;11.80;91.40;;;;;;5053454;28;20032;-72
2023/04/10 00:37:22;;;;;;;18.48;13.40;;;;;;;;;;5054718;28;20048;-72
2023/04/10 00:40:26;;;;;;;15.95;12.30;;;11.90;91.00;;;;;;5054899;28;20048;-72
2023/04/10 00:43:30;;;;;;;15.93;12.07;;;11.70;90.90;;;;;;5054476;28;20056;-72
2023/04/10 00:46:36;;;;;;;17.98;12.20;;;11.70;91.00;;;;;;5054608;28;20503;-72
2023/04/10 00:49:41;;;;;;;16.45;11.70;;;11.90;91.00;;;;;;5054533;28;20064;-71
2023/04/10 00:52:45;;;;;;;18.13;11.95;;;11.80;91.00;;;;;;5054451;28;20060;-71
2023/04/10 00:55:49;;;;;;;19.25;12.25;;;13.20;91.40;;;;;;5054524;28;20044;-71
2023/04/10 00:58:53;;;;;;;17.98;12.40;;;;;;;;;;5054457;28;20044;-71
2023/04/10 01:01:57;;;;;;;18.10;11.63;;;11.70;91.60;;;;;;5054432;28;20377;-71
2023/04/10 01:05:01;;;;;;;19.35;12.60;;;11.80;91.60;;;;;;5054468;28;20056;-71
2023/04/10 01:08:08;;;;;;;23.17;12.32;;;11.80;91.80;;;;;;5053520;28;20183;-71
2023/04/10 01:11:25;;;;;;;19.50;11.93;;;12.30;91.80;;;;;;5054227;28;20048;-72
2023/04/10 01:14:35;;;;;;;22.77;12.90;;;11.00;91.30;;;;;;5053099;28;20432;-72
2023/04/10 01:18:11;;;;;;;18.98;13.70;;;11.90;91.60;;;;;;5054260;28;20044;-71
2023/04/10 01:21:16;;;;;;;20.25;13.90;;;11.80;91.80;;;;;;5054246;28;20044;-72
2023/04/10 01:24:33;;;;;;;26.23;15.68;;;12.00;92.00;;;;;;5053907;28;20052;-71
2023/04/10 01:28:06;;;;;;;59.88;26.08;;;11.90;91.70;;;;;;5053239;28;20666;-72
2023/04/10 01:31:17;;;;;;;42.42;19.33;;;12.60;91.90;;;;;;5053084;28;20421;-72
2023/04/10 01:34:26;;;;;;;28.25;14.55;;;13.00;91.50;;;;;;5053121;28;20476;-71
2023/04/10 01:37:32;;;;;;;39.15;18.83;;;;;;;;;;5053175;28;20048;-72
2023/04/10 01:40:38;;;;;;;27.17;15.90;;;11.60;91.60;;;;;;5052860;28;20051;-72
2023/04/10 01:43:47;;;;;;;33.05;15.80;;;11.50;91.50;;;;;;5052740;28;20040;-72
2023/04/10 01:46:52;;;;;;;27.50;14.23;;;;;;;;;;5053420;28;20055;-72
2023/04/10 01:49:58;;;;;;;20.05;12.45;;;;;;;;;;5053693;28;20044;-72
2023/04/10 01:53:05;;;;;;;20.48;13.25;;;9.40;90.80;;;;;;5052629;28;20064;-71
2023/04/10 01:56:09;;;;;;;27.50;15.43;;;11.60;91.70;;;;;;5052514;28;20091;-72
2023/04/10 01:59:20;;;;;;;24.35;14.60;;;11.60;91.80;;;;;;5052795;28;20048;-72
2023/04/10 02:02:24;;;;;;;24.88;14.35;;;11.50;92.00;;;;;;5052174;28;20044;-72
2023/04/10 02:05:39;;;;;;;29.30;15.48;;;11.30;92.30;;;;;;5053324;28;20048;-72
2023/04/10 02:09:02;;;;;;;23.10;13.70;;;11.10;92.50;;;;;;5053317;28;20469;-72
2023/04/10 02:12:13;;;;;;;19.85;12.20;;;10.50;92.70;;;;;;5051858;28;20048;-72
2023/04/10 02:15:20;;;;;;;14.02;10.98;;;11.20;92.80;;;;;;5052787;28;20060;-72
2023/04/10 02:18:25;;;;;;;24.65;12.63;;;10.60;92.60;;;;;;5053233;28;20048;-72
2023/04/10 02:21:32;;;;;;;14.70;10.65;;;10.80;92.80;;;;;;5052655;28;20048;-72
2023/04/10 02:24:37;;;;;;;14.85;10.32;;;10.80;92.80;;;;;;5052548;28;20044;-72
2023/04/10 02:27:41;;;;;;;13.55;10.23;;;9.50;92.20;;;;;;5051995;28;20047;-72
2023/04/10 02:30:45;;;;;;;15.27;9.93;;;11.00;92.20;;;;;;5040434;28;20397;-71
2023/04/10 02:33:50;;;;;;;11.48;8.63;;;11.20;91.90;;;;;;5051737;28;20412;-72
2023/04/10 02:36:54;;;;;;;13.07;8.55;;;11.00;91.70;;;;;;5051669;28;20036;-72
2023/04/10 02:39:59;;;;;;;10.77;7.88;;;;;;;;;;5051898;28;20043;-72
2023/04/10 02:43:04;;;;;;;11.25;7.88;;;11.00;91.70;;;;;;5051417;28;20048;-71
2023/04/10 02:46:08;;;;;;;9.23;6.40;;;11.30;91.40;;;;;;5051761;28;20052;-72
2023/04/10 02:49:16;;;;;;;9.45;6.38;;;10.80;91.50;;;;;;5051303;28;20393;-71
2023/04/10 02:52:22;;;;;;;7.57;5.80;;;10.80;91.30;;;;;;5051257;28;20136;-71
2023/04/10 02:55:26;;;;;;;7.53;6.05;;;10.90;91.40;;;;;;5052146;28;20040;-71
2023/04/10 02:58:30;;;;;;;8.63;6.72;;;10.90;91.30;;;;;;5052193;28;20167;-71
2023/04/10 03:01:35;;;;;;;7.40;6.28;;;;;;;;;;5051239;28;20044;-71
2023/04/10 03:04:39;;;;;;;13.60;6.60;;;10.90;91.30;;;;;;5039960;28;20036;-71
2023/04/10 03:07:43;;;;;;;8.32;6.68;;;11.00;91.20;;;;;;5051411;28;20056;-71
2023/04/10 03:10:47;;;;;;;10.48;6.72;;;11.20;91.40;;;;;;5051316;28;20051;-71
2023/04/10 03:13:51;;;;;;;16.35;6.88;;;11.00;91.20;;;;;;5051034;28;20051;-72
2023/04/10 03:16:55;;;;;;;10.15;6.75;;;13.50;91.40;;;;;;5051968;28;20393;-72
2023/04/10 03:19:59;;;;;;;17.30;7.93;;;11.00;90.80;;;;;;5051810;28;20047;-72
2023/04/10 03:23:07;;;;;;;8.60;6.28;;;10.90;91.50;;;;;;5050857;28;20032;-72
2023/04/10 03:26:11;;;;;;;8.95;6.05;;;10.70;91.20;;;;;;5050618;28;20405;-71
2023/04/10 03:29:17;;;;;;;8.85;6.72;;;10.50;91.30;;;;;;5050640;28;20052;-72
2023/04/10 03:32:21;;;;;;;9.30;5.70;;;10.70;91.70;;;;;;5050545;28;20052;-72
2023/04/10 03:35:25;;;;;;;11.63;6.20;;;10.10;91.60;;;;;;5050727;28;20052;-71
2023/04/10 03:38:30;;;;;;;9.18;6.60;;;10.60;91.30;;;;;;5050490;28;20039;-71
2023/04/10 03:41:33;;;;;;;9.43;6.93;;;10.60;91.50;;;;;;5051025;28;20039;-72
2023/04/10 03:44:37;;;;;;;10.98;6.90;;;10.80;91.40;;;;;;5051411;28;20044;-71
2023/04/10 03:47:42;;;;;;;9.70;6.85;;;11.00;91.20;;;;;;5050725;28;20043;-72
2023/04/10 03:50:49;;;;;;;16.60;8.48;;;10.90;91.40;;;;;;5050348;28;20048;-71
2023/04/10 03:53:53;;;;;;;17.10;8.60;;;10.90;91.40;;;;;;5051344;28;20052;-72
2023/04/10 03:56:57;;;;;;;14.68;8.25;;;10.70;91.80;;;;;;5050285;28;20044;-72
2023/04/10 04:00:01;;;;;;;13.32;7.68;;;10.90;92.10;;;;;;5050221;28;20064;-72
2023/04/10 04:03:12;;;;;;;10.23;7.07;;;10.50;91.90;;;;;;5050800;28;20143;-72
2023/04/10 04:06:35;;;;;;;15.73;8.45;;;10.70;92.20;;;;;;5051101;28;20036;-72
2023/04/10 04:09:59;;;;;;;13.32;8.63;;;;;;;;;;5055491;28;20047;-72
2023/04/10 04:13:22;;;;;;;14.88;7.68;;;10.70;92.10;;;;;;5050823;28;20048;-72
2023/04/10 04:16:30;;;;;;;12.55;8.13;;;10.70;92.50;;;;;;5050187;28;20068;-72
2023/04/10 04:19:53;;;;;;;13.02;8.90;;;10.60;92.50;;;;;;5050807;28;20040;-72
2023/04/10 04:23:16;;;;;;;14.07;7.95;;;10.60;92.30;;;;;;5050618;28;20052;-72
2023/04/10 04:26:39;;;;;;;11.77;8.18;;;10.60;92.50;;;;;;5050387;28;20052;-72
2023/04/10 04:30:05;;;;;;;16.05;8.70;;;10.40;92.80;;;;;;5051941;28;20044;-72
2023/04/10 04:33:21;;;;;;;15.88;7.80;;;10.40;93.00;;;;;;5050038;28;20051;-71
2023/04/10 04:36:58;;;;;;;24.42;10.07;;;10.40;93.30;;;;;;5049900;28;20052;-71
2023/04/10 04:40:21;;;;;;;21.92;10.02;;;10.30;93.60;;;;;;5049869;28;20048;-71
2023/04/10 04:43:52;;;;;;;18.65;9.35;;;;;;;;;;5050666;28;20056;-71
2023/04/10 04:47:03;;;;;;;15.60;8.90;;;9.50;93.40;;;;;;5049798;28;20039;-71
2023/04/10 04:50:30;;;;;;;16.50;8.32;;;10.50;93.70;;;;;;5049775;28;20048;-72
2023/04/10 04:54:00;;;;;;;20.08;9.93;;;9.40;93.20;;;;;;5048090;28;20060;-71
2023/04/10 04:57:12;;;;;;;25.02;9.80;;;11.30;93.60;;;;;;5050521;28;20048;-71
2023/04/10 05:00:51;;;;;;;21.73;12.60;;;10.20;93.40;;;;;;5048301;28;20048;-72
2023/04/10 05:04:19;;;;;;;19.20;12.63;;;11.20;92.20;;;;;;5050082;28;20052;-71
2023/04/10 05:07:45;;;;;;;22.30;11.50;;;11.50;91.40;;;;;;5049516;28;20036;-71
2023/04/10 05:11:02;;;;;;;19.30;10.00;;;11.50;91.30;;;;;;5049500;28;20405;-71
2023/04/10 05:14:15;;;;;;;16.02;9.52;;;10.10;91.00;;;;;;5050532;28;20048;-71
2023/04/10 05:17:49;;;;;;;17.00;9.13;;;11.00;91.50;;;;;;5048772;28;20048;-71
2023/04/10 05:21:17;;;;;;;22.08;11.77;;;11.50;91.70;;;;;;5052337;28;20047;-72
2023/04/10 05:24:40;;;;;;;28.45;15.73;;;10.10;91.30;;;;;;5053555;28;20051;-72
2023/04/10 05:27:50;;;;;;;28.58;12.93;;;11.40;91.70;;;;;;5053382;28;20044;-72
2023/04/10 05:31:04;;;;;;;152.07;59.67;;;11.20;92.00;;;;;;5053070;28;20052;-72
2023/04/10 05:34:25;;;;;;;92.65;39.53;;;11.00;92.50;;;;;;5053008;28;20047;-71
2023/04/10 05:37:44;;;;;;;29.70;14.95;;;11.20;92.40;;;;;;5053195;28;20036;-72
2023/04/10 05:41:24;;;;;;;59.08;27.63;;;12.40;92.70;;;;;;5032177;28;20601;-72
2023/04/10 05:44:53;;;;;;;30.42;17.08;;;10.70;92.30;;;;;;5053487;28;20047;-72
2023/04/10 05:48:24;;;;;;;81.88;29.13;;;11.50;92.60;;;;;;5053559;28;20056;-72
2023/04/10 05:51:54;;;;;;;;;;;11.60;93.30;;;;;;5053704;28;20124;-71
2023/04/10 05:55:19;;;;;;;23.95;12.05;;;12.70;90.90;;;;;;5053692;28;19911;-71
2023/04/10 05:58:42;;;;;;;16.15;10.30;;;;;;;;;;5053718;28;20048;-72
2023/04/10 06:01:59;;;;;;;24.80;11.60;;;13.70;89.80;;;;;;5052397;28;20052;-72
2023/04/10 06:05:04;;;;;;;21.67;10.10;;;13.60;90.00;;;;;;5052732;28;20048;-72
2023/04/10 06:08:10;;;;;;;19.85;10.40;;;14.00;88.40;;;;;;5041104;28;20040;-71
2023/04/10 06:11:14;;;;;;;16.52;10.23;;;14.50;86.70;;;;;;5053113;28;20503;-71
2023/04/10 06:14:22;;;;;;;18.13;11.10;;;14.90;85.20;;;;;;5052523;28;20048;-71
2023/04/10 06:17:27;;;;;;;16.20;8.73;;;15.50;83.00;;;;;;5052555;28;20044;-72
2023/04/10 06:20:31;;;;;;;13.23;8.15;;;15.90;78.20;;;;;;5052132;28;20048;-71
2023/04/10 06:23:36;;;;;;;14.35;8.95;;;16.20;77.90;;;;;;5052369;28;20052;-72
2023/04/10 06:26:40;;;;;;;11.65;7.40;;;16.50;77.10;;;;;;5040349;28;20060;-72
2023/04/10 06:29:43;;;;;;;10.30;6.60;;;16.80;75.70;;;;;;5052373;28;20048;-72
2023/04/10 06:32:47;;;;;;;12.32;6.88;;;17.00;74.60;;;;;;5051469;28;20405;-72
2023/04/10 06:35:51;;;;;;;11.50;7.28;;;17.30;73.70;;;;;;5051675;28;20040;-72
2023/04/10 06:38:57;;;;;;;11.85;6.90;;;17.50;72.80;;;;;;5051714;28;20052;-72
2023/04/10 06:42:02;;;;;;;8.10;6.13;;;17.70;73.10;;;;;;5052439;28;20044;-72
2023/04/10 06:45:20;;;;;;;6.20;4.53;;;18.00;71.70;;;;;;5051781;28;20055;-72
2023/04/10 06:48:24;;;;;;;9.52;5.35;;;18.20;69.10;;;;;;5052334;28;20059;-72
2023/04/10 06:51:28;;;;;;;7.80;4.65;;;18.40;69.90;;;;;;5052024;28;20078;-72
2023/04/10 06:54:31;;;;;;;6.32;4.50;;;18.30;67.20;;;;;;5052170;28;20036;-72
2023/04/10 06:57:35;;;;;;;7.95;4.95;;;18.10;67.30;;;;;;5052429;28;20388;-71
2023/04/10 07:00:40;;;;;;;10.93;6.22;;;18.10;68.00;;;;;;5052097;28;20496;-71
2023/04/10 07:03:45;;;;;;;7.75;4.85;;;18.20;67.30;;;;;;5052104;28;20056;-71
2023/04/10 07:06:48;;;;;;;9.30;4.63;;;18.10;66.10;;;;;;5052011;28;20539;-71
2023/04/10 07:09:52;;;;;;;11.13;6.43;;;18.40;65.70;;;;;;5052124;28;20052;-71
2023/04/10 07:12:57;;;;;;;7.45;3.75;;;19.00;66.60;;;;;;5051522;28;20056;-73
2023/04/10 07:16:02;;;;;;;7.65;4.95;;;19.50;63.20;;;;;;5052007;28;20044;-71
2023/04/10 07:19:05;;;;;;;6.78;4.57;;;19.40;64.20;;;;;;5051519;28;20044;-71
2023/04/10 07:22:10;;;;;;;4.10;2.60;;;19.60;64.00;;;;;;5051703;28;20119;-71
2023/04/10 07:25:14;;;;;;;8.88;2.92;;;19.90;61.60;;;;;;5051408;28;20071;-71
2023/04/10 07:28:18;;;;;;;3.20;2.20;;;20.00;61.30;;;;;;5051630;28;20040;-71
2023/04/10 07:31:22;;;;;;;5.07;2.50;;;20.30;58.80;;;;;;5051420;28;20043;-71
2023/04/10 07:34:27;;;;;;;3.33;2.70;;;20.40;58.10;;;;;;5051257;28;20047;-72
2023/04/10 07:37:30;;;;;;;5.80;2.85;;;20.20;58.30;;;;;;5051576;28;20035;-71
2023/04/10 07:40:34;;;;;;;3.00;2.20;;;19.70;58.40;;;;;;5051255;28;20048;-71
2023/04/10 07:43:38;;;;;;;9.00;2.60;;;19.80;59.20;;;;;;5050515;28;20048;-71
2023/04/10 07:46:43;;;;;;;10.23;2.88;;;20.10;58.40;;;;;;5051191;28;20048;-71
2023/04/10 07:49:47;;;;;;;4.78;3.10;;;20.50;58.70;;;;;;5051188;28;20059;-71
2023/04/10 07:52:51;;;;;;;5.68;3.15;;;20.50;57.50;;;;;;5050119;28;20056;-71
2023/04/10 07:55:54;;;;;;;3.40;2.42;;;20.50;58.10;;;;;;5051104;28;20048;-71
2023/04/10 07:59:02;;;;;;;7.13;2.65;;;20.70;58.10;;;;;;5051126;28;20048;-71
2023/04/10 08:02:06;;;;;;;3.67;2.63;;;20.90;58.70;;;;;;5052223;28;20063;-71
2023/04/10 08:05:10;;;;;;;3.85;2.38;;;20.60;56.80;;;;;;5051287;28;20059;-71
2023/04/10 08:08:15;;;;;;;3.30;2.60;;;20.50;57.40;;;;;;5051305;28;20040;-70
2023/04/10 08:11:26;;;;;;;4.18;2.72;;;20.80;59.10;;;;;;5049872;28;20048;-71
2023/04/10 08:14:30;;;;;;;4.57;2.90;;;20.90;57.10;;;;;;5050369;28;20056;-71
2023/04/10 08:17:33;;;;;;;5.15;2.33;;;20.70;57.60;;;;;;5050913;28;20746;-71
2023/04/10 08:20:37;;;;;;;3.17;2.58;;;20.70;57.40;;;;;;5050757;28;20052;-71
2023/04/10 08:23:41;;;;;;;4.45;2.85;;;20.20;57.60;;;;;;5050489;28;20111;-72
2023/04/10 08:26:45;;;;;;;5.00;2.85;;;20.00;58.00;;;;;;5049849;28;20044;-72
2023/04/10 08:29:49;;;;;;;2.65;2.03;;;19.40;58.40;;;;;;5050812;28;20044;-71
2023/04/10 08:32:53;;;;;;;4.07;2.60;;;18.70;60.00;;;;;;5050629;28;20397;-72
2023/04/10 08:35:57;;;;;;;4.00;2.40;;;18.10;60.90;;;;;;5050695;28;20048;-71
2023/04/10 08:39:01;;;;;;;5.90;2.38;;;18.20;62.10;;;;;;5050828;28;20040;-71
2023/04/10 08:42:06;;;;;;;4.65;2.15;;;18.20;60.70;;;;;;5049524;28;20040;-71
2023/04/10 08:45:10;;;;;;;2.97;2.33;;;17.80;61.10;;;;;;5050839;28;20508;-70
2023/04/10 08:48:17;;;;;;;3.10;2.28;;;17.40;63.20;;;;;;5050830;28;20065;-71
2023/04/10 08:51:25;;;;;;;4.00;2.60;;;17.30;63.60;;;;;;5050135;28;20048;-70
2023/04/10 08:54:32;;;;;;;2.60;2.15;;;17.00;63.40;;;;;;5051357;28;20052;-71
2023/04/10 08:57:37;;;;;;;3.40;1.95;;;17.00;65.00;;;;;;5054697;28;20044;-71
2023/04/10 09:00:41;;;;;;;4.40;2.30;;;17.00;64.50;;;;;;5054242;28;20044;-71
2023/04/10 09:03:47;;;;;;;4.70;2.50;;;16.90;65.80;;;;;;5053505;28;20044;-70
2023/04/10 09:06:52;;;;;;;4.03;1.83;;;16.70;67.00;;;;;;5054476;28;20060;-70
2023/04/10 09:09:55;;;;;;;2.92;1.98;;;16.60;67.50;;;;;;5054226;28;20076;-71
2023/04/10 09:12:59;;;;;;;3.58;2.00;;;16.60;68.90;;;;;;5053065;28;20428;-70
2023/04/10 09:16:04;;;;;;;7.10;1.98;;;16.70;68.70;;;;;;5053866;28;20044;-72
2023/04/10 09:19:08;;;;;;;5.13;1.92;;;16.50;68.20;;;;;;5053935;28;20524;-71
2023/04/10 09:22:13;;;;;;;3.90;2.05;;;12.70;67.20;;;;;;5054093;28;20500;-72
2023/04/10 09:25:39;;;;;;;2.90;2.58;;;16.20;69.20;;;;;;5053807;28;20068;-71
2023/04/10 09:29:04;;;;;;;2.70;2.17;;;17.40;68.60;;;;;;5053659;28;20044;-70
2023/04/10 09:32:09;;;;;;;2.28;1.90;;;18.10;68.70;;;;;;5053769;28;20048;-71
2023/04/10 09:35:14;;;;;;;2.70;2.30;;;16.10;68.10;;;;;;5054083;28;20504;-72
2023/04/10 09:38:20;;;;;;;2.28;2.00;;;16.40;66.90;;;;;;5052941;28;20056;-72
2023/04/10 09:41:25;;;;;;;2.10;1.88;;;;;;;;;;5053512;28;20047;-72
2023/04/10 09:44:34;;;;;;;2.53;2.08;;;16.60;66.60;;;;;;5053463;28;20370;-72
2023/04/10 09:47:38;;;;;;;3.05;2.00;;;16.40;68.30;;;;;;5053704;28;20052;-71
2023/04/10 09:50:42;;;;;;;4.20;2.97;;;16.30;68.20;;;;;;5052574;28;20048;-72
2023/04/10 09:53:50;;;;;;;7.85;2.60;;;15.90;68.80;;;;;;5052484;28;20051;-71
2023/04/10 09:56:54;;;;;;;2.90;2.35;;;15.70;71.20;;;;;;5053536;28;20479;-71
2023/04/10 10:00:04;;;;;;;3.55;2.60;;;15.60;69.30;;;;;;5052512;28;20052;-71
2023/04/10 10:03:23;;;;;;;3.42;2.55;;;15.90;69.10;;;;;;5053227;28;20036;-73
2023/04/10 10:06:28;;;;;;;3.58;2.67;;;15.90;68.10;;;;;;5052705;28;20044;-72
2023/04/10 10:09:33;;;;;;;2.80;2.50;;;15.70;70.10;;;;;;5053096;28;20044;-71
2023/04/10 10:12:50;;;;;;;3.30;2.67;;;15.40;70.10;;;;;;5051977;28;20401;-70
2023/04/10 10:16:03;;;;;;;3.60;2.67;;;;;;;;;;5053270;28;20067;-72
2023/04/10 10:19:07;;;;;;;3.67;2.72;;;16.70;72.10;;;;;;5052638;28;20041;-71
2023/04/10 10:22:12;;;;;;;3.30;2.70;;;15.10;72.10;;;;;;5053091;28;20060;-71
2023/04/10 10:25:19;;;;;;;3.22;2.80;;;15.10;71.20;;;;;;5052831;28;20401;-71
2023/04/10 10:28:24;;;;;;;4.95;2.95;;;15.00;72.10;;;;;;5052590;28;20044;-70
2023/04/10 10:31:32;;;;;;;4.72;3.05;;;15.10;73.40;;;;;;5052517;28;20039;-71
2023/04/10 10:34:36;;;;;;;4.63;3.22;;;15.00;72.30;;;;;;5051850;28;20052;-71
2023/04/10 10:37:41;;;;;;;6.40;4.00;;;;;;;;;;5052526;28;20515;-71
2023/04/10 10:41:01;;;;;;;5.03;3.28;;;15.10;72.40;;;;;;5052503;28;20044;-70
2023/04/10 10:44:13;;;;;;;6.15;3.53;;;15.10;71.10;;;;;;5052436;28;20072;-71
2023/04/10 10:47:18;;;;;;;5.25;3.45;;;15.60;69.80;;;;;;5052545;28;20040;-71
2023/04/10 10:50:22;;;;;;;3.03;2.53;;;13.90;67.60;;;;;;5052413;28;20051;-70
2023/04/10 10:53:35;;;;;;;5.78;2.80;;;15.30;70.20;;;;;;5052153;28;20056;-71
2023/04/10 10:56:39;;;;;;;3.67;2.92;;;15.70;70.60;;;;;;5052167;28;20056;-71
2023/04/10 10:59:43;;;;;;;4.88;3.00;;;15.70;71.00;;;;;;5052303;28;20047;-71
2023/04/10 11:03:05;;;;;;;6.45;4.32;;;16.10;70.50;;;;;;5052260;28;20036;-71
2023/04/10 11:06:18;;;;;;;5.30;3.80;;;16.60;70.00;;;;;;5052156;28;20048;-71
2023/04/10 11:09:52;;;;;;;6.53;3.72;;;16.70;68.70;;;;;;5051297;28;20641;-71
2023/04/10 11:13:16;;;;;;;5.13;3.65;;;16.70;69.00;;;;;;5050886;28;20075;-71
2023/04/10 11:16:42;;;;;;;5.35;3.85;;;16.40;69.50;;;;;;5050556;28;20056;-71
2023/04/10 11:19:58;;;;;;;5.32;3.30;;;16.10;70.00;;;;;;5051849;28;20044;-71
2023/04/10 11:23:10;;;;;;;11.85;4.85;;;16.00;69.30;;;;;;5051813;28;20056;-71
2023/04/10 11:26:37;;;;;;;9.13;4.97;;;15.90;69.60;;;;;;5051081;28;20056;-71
2023/04/10 11:29:41;;;;;;;6.55;4.78;;;15.90;69.30;;;;;;5050955;28;20389;-71
2023/04/10 11:32:48;;;;;;;5.53;4.28;;;16.00;69.30;;;;;;5038977;28;20056;-71
2023/04/10 11:35:53;;;;;;;6.32;4.00;;;16.10;69.00;;;;;;5051318;28;20396;-72
2023/04/10 11:39:04;;;;;;;7.75;4.93;;;16.20;69.30;;;;;;5051136;28;20044;-70
2023/04/10 11:42:10;;;;;;;4.88;4.20;;;16.30;69.70;;;;;;5051488;28;20048;-71
2023/04/10 11:45:25;;;;;;;6.50;4.32;;;16.20;68.50;;;;;;5051115;28;20052;-71
2023/04/10 11:48:30;;;;;;;5.07;4.45;;;16.10;68.90;;;;;;5050301;28;20040;-71
2023/04/10 11:51:34;;;;;;;7.43;4.55;;;16.40;69.30;;;;;;5050088;28;20040;-71
2023/04/10 11:54:47;;;;;;;6.20;4.75;;;16.40;69.80;;;;;;5051276;28;20401;-71
2023/04/10 11:57:51;;;;;;;6.22;4.93;;;16.60;68.40;;;;;;5051226;28;20044;-71
2023/04/10 12:01:03;;;;;;;6.05;5.07;;;16.40;68.50;;;;;;5050870;28;20048;-71
2023/04/10 12:04:15;;;;;;;8.48;6.13;;;16.20;68.60;;;;;;5051090;28;20048;-71
2023/04/10 12:07:22;;;;;;;9.50;6.20;;;16.10;69.10;;;;;;5051165;28;20048;-71
2023/04/10 12:10:26;;;;;;;8.90;6.15;;;14.80;68.70;;;;;;5050617;28;20409;-71
2023/04/10 12:13:31;;;;;;;6.75;5.72;;;15.70;69.70;;;;;;5050637;28;20064;-71
2023/04/10 12:16:35;;;;;;;11.18;7.13;;;15.90;70.30;;;;;;5050938;28;20040;-71
2023/04/10 12:19:40;;;;;;;7.97;6.70;;;16.10;70.00;;;;;;5050738;28;20503;-71
2023/04/10 12:22:45;;;;;;;10.90;8.43;;;16.10;70.30;;;;;;5050129;28;20515;-71
2023/04/10 12:25:50;;;;;;;11.18;7.97;;;16.00;70.70;;;;;;5050285;28;20531;-71
2023/04/10 12:28:56;;;;;;;9.65;7.63;;;15.60;70.60;;;;;;5049736;28;20044;-71
2023/04/10 12:32:10;;;;;;;11.57;8.50;;;15.50;70.90;;;;;;5050758;28;20488;-71
2023/04/10 12:35:14;;;;;;;14.80;10.95;;;15.70;71.90;;;;;;5049657;28;20048;-71
2023/04/10 12:38:41;;;;;;;11.00;9.07;;;15.60;71.60;;;;;;5050734;28;20047;-71
2023/04/10 12:41:44;;;;;;;9.75;7.88;;;15.90;70.00;;;;;;5049483;28;20044;-71
2023/04/10 12:44:59;;;;;;;12.57;7.85;;;16.00;70.30;;;;;;5050675;28;20056;-71
2023/04/10 12:48:03;;;;;;;10.90;8.45;;;16.10;71.10;;;;;;5049578;28;20044;-71
2023/04/10 12:51:06;;;;;;;9.40;8.23;;;16.70;70.30;;;;;;5049609;28;20044;-71
2023/04/10 12:54:11;;;;;;;9.98;7.82;;;16.10;70.40;;;;;;5050248;28;20060;-71
2023/04/10 12:57:26;;;;;;;11.20;9.13;;;16.20;69.30;;;;;;5050335;28;20048;-71
2023/04/10 13:00:30;;;;;;;14.00;9.00;;;16.20;69.20;;;;;;5050826;28;20048;-70
2023/04/10 13:03:36;;;;;;;11.90;9.48;;;16.10;69.30;;;;;;5049337;28;20538;-71
2023/04/10 13:06:45;;;;;;;13.13;8.95;;;16.20;70.00;;;;;;5050377;28;20044;-71
2023/04/10 13:09:49;;;;;;;11.88;9.80;;;16.20;70.30;;;;;;5050513;28;20056;-71
2023/04/10 13:12:52;;;;;;;9.93;8.50;;;16.10;70.20;;;;;;5050484;28;20173;-71
2023/04/10 13:15:57;;;;;;;18.35;9.05;;;15.90;69.50;;;;;;5050366;28;20039;-72
2023/04/10 13:19:01;;;;;;;14.27;10.07;;;15.90;70.30;;;;;;5049697;28;20048;-72
2023/04/10 13:22:05;;;;;;;16.17;11.23;;;15.90;70.60;;;;;;5049558;28;20052;-72
2023/04/10 13:25:09;;;;;;;9.40;8.15;;;16.10;69.80;;;;;;5050009;28;20048;-72
2023/04/10 13:28:14;;;;;;;8.93;7.65;;;16.20;69.30;;;;;;5050334;28;20044;-72
2023/04/10 13:31:18;;;;;;;11.20;8.73;;;16.20;68.50;;;;;;5050420;28;20496;-68
2023/04/10 13:34:22;;;;;;;10.50;8.40;;;16.30;69.60;;;;;;5050042;28;20060;-68
2023/04/10 13:37:26;;;;;;;10.27;9.00;;;16.40;69.70;;;;;;5050366;28;20593;-70
2023/04/10 13:40:30;;;;;;;10.20;8.00;;;16.40;68.40;;;;;;5050062;28;20043;-67
2023/04/10 13:43:35;;;;;;;12.60;8.98;;;16.40;67.40;;;;;;5053525;28;20060;-67
2023/04/10 13:46:39;;;;;;;10.15;8.43;;;16.40;67.00;;;;;;5053416;28;20044;-68
2023/04/10 13:49:43;;;;;;;11.20;8.55;;;16.30;68.10;;;;;;5053459;28;20040;-68
2023/04/10 13:52:47;;;;;;;8.98;8.02;;;16.10;67.50;;;;;;5053500;28;20512;-68
2023/04/10 13:55:51;;;;;;;10.18;6.30;;;16.10;68.80;;;;;;5053520;28;20496;-68
2023/04/10 13:58:55;;;;;;;9.32;6.70;;;16.10;65.40;;;;;;5053710;28;20499;-67
2023/04/10 14:01:59;;;;;;;9.85;6.78;;;16.10;64.30;;;;;;5053384;28;20048;-68
2023/04/10 14:05:03;;;;;;;7.82;5.72;;;16.20;64.20;;;;;;5053469;28;20504;-68
2023/04/10 14:08:10;;;;;;;7.55;6.15;;;16.50;63.50;;;;;;5053187;28;20052;-69
2023/04/10 14:11:14;;;;;;;8.23;6.30;;;16.60;62.80;;;;;;5053108;28;20044;-68
2023/04/10 14:14:20;;;;;;;7.82;6.13;;;16.40;62.50;;;;;;5053071;28;20511;-68
2023/04/10 14:17:24;;;;;;;7.15;5.43;;;16.70;63.50;;;;;;5053345;28;20044;-69
2023/04/10 14:20:28;;;;;;;8.20;6.40;;;16.80;62.30;;;;;;5053166;28;20052;-69
2023/04/10 14:23:31;;;;;;;7.63;6.32;;;16.70;62.80;;;;;;5052965;28;20036;-69
2023/04/10 14:26:36;;;;;;;7.97;6.35;;;16.70;63.10;;;;;;5052719;28;20059;-68
2023/04/10 14:29:40;;;;;;;9.32;7.20;;;16.60;64.50;;;;;;5052810;28;20048;-68
2023/04/10 14:32:44;;;;;;;8.55;6.18;;;16.70;65.00;;;;;;5052609;28;20044;-69
2023/04/10 14:35:49;;;;;;;8.95;6.32;;;16.60;64.00;;;;;;5053050;28;20048;-69
2023/04/10 14:38:52;;;;;;;7.97;6.50;;;16.60;63.00;;;;;;5052483;28;20059;-68
2023/04/10 14:41:56;;;;;;;9.95;7.22;;;16.50;63.10;;;;;;5052405;28;20052;-68
2023/04/10 14:45:00;;;;;;;8.88;6.97;;;16.40;63.90;;;;;;5052734;28;20499;-67
2023/04/10 14:48:04;;;;;;;10.68;8.80;;;16.10;64.20;;;;;;5052583;28;20048;-73
2023/04/10 14:51:11;;;;;;;7.85;7.00;;;16.20;64.80;;;;;;5050760;28;20044;-71
2023/04/10 14:54:15;;;;;;;11.07;7.15;;;16.20;65.10;;;;;;5039765;28;20055;-72
2023/04/10 14:57:20;;;;;;;7.60;6.80;;;16.30;65.10;;;;;;5051130;28;20056;-71
2023/04/10 15:00:24;;;;;;;9.25;6.68;;;16.30;65.20;;;;;;5051964;28;20044;-71
2023/04/10 15:03:28;;;;;;;10.95;6.93;;;16.40;65.30;;;;;;5052423;28;20036;-71
2023/04/10 15:06:35;;;;;;;10.52;7.07;;;16.50;65.30;;;;;;5051975;28;20052;-72
2023/04/10 15:09:43;;;;;;;9.80;6.70;;;16.50;65.40;;;;;;5052124;28;20036;-71
2023/04/10 15:12:47;;;;;;;8.45;7.05;;;16.60;64.80;;;;;;5052047;28;20052;-71
2023/04/10 15:15:51;;;;;;;9.25;7.35;;;16.50;63.80;;;;;;5051948;28;20044;-71
2023/04/10 15:18:56;;;;;;;9.55;7.82;;;16.60;64.40;;;;;;5039539;28;20047;-72
2023/04/10 15:22:00;;;;;;;11.98;8.13;;;16.50;64.40;;;;;;5051923;28;20044;-72
2023/04/10 15:25:04;;;;;;;8.82;7.28;;;16.30;63.90;;;;;;5051795;28;20051;-71
2023/04/10 15:28:09;;;;;;;7.95;7.15;;;16.40;64.30;;;;;;5051686;28;20052;-71
2023/04/10 15:31:13;;;;;;;14.60;7.15;;;13.40;63.40;;;;;;5051910;28;20052;-71
2023/04/10 15:34:16;;;;;;;8.98;7.18;;;16.30;65.30;;;;;;5051532;28;20079;-71
2023/04/10 15:37:22;;;;;;;8.95;7.72;;;16.30;64.50;;;;;;5051610;28;20044;-71
2023/04/10 15:40:27;;;;;;;10.13;7.60;;;16.30;64.80;;;;;;5038966;28;20048;-71
2023/04/10 15:43:31;;;;;;;10.13;8.25;;;16.30;65.20;;;;;;5051388;28;20044;-71
2023/04/10 15:46:36;;;;;;;10.73;8.43;;;16.20;64.70;;;;;;5051107;28;20341;-72
2023/04/10 15:49:40;;;;;;;12.00;8.43;;;16.30;65.40;;;;;;5051451;28;20040;-71
2023/04/10 15:52:44;;;;;;;10.95;8.55;;;;;;;;;;5051075;28;20047;-72
2023/04/10 15:55:48;;;;;;;10.10;8.25;;;16.30;65.80;;;;;;5051410;28;20044;-71
2023/04/10 15:58:52;;;;;;;10.55;8.93;;;17.40;67.70;;;;;;5051303;28;20076;-71
2023/04/10 16:01:56;;;;;;;10.80;8.85;;;16.30;68.00;;;;;;5051173;28;20496;-72
2023/04/10 16:05:00;;;;;;;12.95;8.98;;;16.30;68.40;;;;;;5050488;28;20048;-72
2023/04/10 16:08:04;;;;;;;14.32;10.75;;;16.30;66.00;;;;;;5038633;28;20044;-72
2023/04/10 16:11:08;;;;;;;11.20;8.77;;;16.20;65.80;;;;;;5050183;28;20047;-71
2023/04/10 16:14:17;;;;;;;13.02;10.43;;;16.20;65.90;;;;;;5050793;28;20535;-71
2023/04/10 16:17:21;;;;;;;11.95;8.90;;;16.10;64.80;;;;;;5050169;28;20496;-72